Terminal Aerodrome Forecast
Issued by NWS

Home | Current Version | Previous Version | Text Only | Print | Product List | Glossary On
Versions: 1 2 3 4 5 6 7 8 9 10 11 12 13 14 15 16 17 18 19 20 21 22 23 24 25 26 27 28 29 30 31 32 33 34 35 36 37 38 39 40 41 42 43 44 45 46 47 48 49 50
655
FTUS43 KMKX 222357 AAA
TAFUES
TAF AMD
KUES 222357Z 2300/2324 VRB04KT P6SM VCSH SCT040 BKN120
      TEMPO 2300/2301 3SM TSRA BKN040CB OVC100
     FM230200 08005KT 5SM -TSRA SCT040 BKN080CB
     FM230500 02004KT P6SM -SHRA SCT040 OVC100
     FM230800 33004KT P6SM VCSH BKN025
     FM231200 33006KT P6SM BKN040
     FM231800 29012KT P6SM SCT040=

USA.gov is the U.S. government's official web portal to all federal, state and local government web resources and services.